Time;durP1;ratioP1;P1;durP2;ratioP2;P2;SDS_P1;SDS_P2;PMS_P1;PMS_P2;Temp;Humidity;BMP_temperature;BMP_pressure;BME280_temperature;BME280_humidity;BME280_pressure;Samples;Min_cycle;Max_cycle;Signal;HPM_P1;HPM_P2
2023/03/07 00:00:59;;;;;;;0.40;0.40;;;;;;;4.28;91.41;96376.06;5005450;28;20080;-61
2023/03/07 00:03:26;;;;;;;0.40;0.40;;;;;;;4.28;92.44;96371.34;5005605;28;20050;-61
2023/03/07 00:06:07;;;;;;;0.40;0.40;;;;;;;4.27;92.98;96382.66;5004402;28;20054;-59
2023/03/07 00:08:35;;;;;;;0.40;0.40;;;;;;;4.23;92.83;96393.53;5005695;28;20108;-61
2023/03/07 00:11:07;;;;;;;0.50;0.50;;;;;;;4.25;92.61;96380.28;5005529;28;20057;-61
2023/03/07 00:13:36;;;;;;;0.40;0.40;;;;;;;4.02;93.09;96367.41;5005376;28;20081;-59
2023/03/07 00:16:05;;;;;;;0.40;0.40;;;;;;;4.14;93.33;96379.16;5005281;28;20058;-62
2023/03/07 00:18:33;;;;;;;0.35;0.35;;;;;;;3.71;95.16;96370.75;4999281;28;20086;-61
2023/03/07 00:21:04;;;;;;;0.40;0.40;;;;;;;3.73;95.37;96362.97;5005179;28;20267;-61
2023/03/07 00:23:33;;;;;;;0.40;0.40;;;;;;;3.71;94.95;96370.75;5004412;28;20162;-59
2023/03/07 00:26:02;;;;;;;0.40;0.40;;;;;;;3.66;95.58;96368.25;5005176;28;20050;-60
2023/03/07 00:28:29;;;;;;;0.40;0.40;;;;;;;3.67;95.69;96358.88;5005110;28;20081;-61
2023/03/07 00:31:06;;;;;;;0.40;0.40;;;;;;;3.63;95.82;96362.66;5005001;28;20144;-59
2023/03/07 00:33:33;;;;;;;0.40;0.40;;;;;;;3.42;97.20;96368.22;5005036;28;20421;-61
2023/03/07 00:36:05;;;;;;;0.40;0.40;;;;;;;3.04;96.67;96285.66;5004834;28;20053;-61
2023/03/07 00:38:33;;;;;;;0.40;0.40;;;;;;;3.65;95.65;96354.91;5005285;28;20061;-61
2023/03/07 00:41:05;;;;;;;0.40;0.40;;;;;;;3.62;95.18;96352.84;5004582;28;20153;-60
2023/03/07 00:43:33;;;;;;;0.40;0.40;;;;;;;3.72;94.37;96350.44;5004818;28;20081;-60
2023/03/07 00:46:00;;;;;;;0.40;0.40;;;;;;;3.78;92.61;96354.53;5004509;28;20054;-61
2023/03/07 00:48:27;;;;;;;0.40;0.40;;;;;;;3.70;92.29;96347.25;5005036;28;20129;-60
2023/03/07 00:50:55;;;;;;;0.40;0.40;;;;;;;3.53;92.06;96325.59;5019572;28;20526;-60
2023/03/07 00:53:21;;;;;;;0.40;0.40;;;;;;;3.53;92.94;96322.03;5005123;28;20046;-62
2023/03/07 00:56:03;;;;;;;0.40;0.40;;;;;;;3.31;97.62;96333.44;5004709;28;20145;-60
2023/03/07 00:58:31;;;;;;;0.40;0.40;;;;;;;3.27;98.33;96333.34;5005181;28;20104;-59
2023/03/07 01:00:59;;;;;;;0.40;0.40;;;;;;;3.35;98.14;96335.16;5003103;28;20050;-61
2023/03/07 01:03:26;;;;;;;0.40;0.40;;;;;;;3.51;96.46;96338.03;5003853;28;20053;-62
2023/03/07 01:05:53;;;;;;;0.40;0.40;;;;;;;3.47;96.01;96331.63;5003585;28;20504;-60
2023/03/07 01:08:21;;;;;;;0.40;0.40;;;;;;;3.09;94.58;96256.16;5002823;28;20096;-62
2023/03/07 01:10:47;;;;;;;0.40;0.40;;;;;;;3.51;95.17;96344.28;5003593;28;20097;-60
2023/03/07 01:13:16;;;;;;;0.40;0.40;;;;;;;3.42;95.99;96329.91;5003656;28;20058;-57
2023/03/07 01:15:42;;;;;;;0.40;0.40;;;;;;;3.16;96.79;96304.84;5003751;28;20056;-61
2023/03/07 01:18:09;;;;;;;0.40;0.40;;;;;;;3.00;95.61;96268.34;5004416;28;20830;-60
2023/03/07 01:20:37;;;;;;;0.40;0.40;;;;;;;3.42;94.38;96329.91;5004698;28;20159;-59
2023/03/07 01:23:04;;;;;;;0.32;0.32;;;;;;;2.83;95.78;96274.00;5003988;28;20087;-61
2023/03/07 01:25:31;;;;;;;0.40;0.40;;;;;;;0.21;95.66;95836.00;5003296;28;20475;-62
2023/03/07 01:27:57;;;;;;;0.40;0.40;;;;;;;3.30;95.96;96321.72;5004834;28;20046;-60
2023/03/07 01:30:24;;;;;;;0.40;0.40;;;;;;;3.35;96.62;96323.41;5004281;28;20061;-59
2023/03/07 01:32:59;;;;;;;0.40;0.40;;;;;;;3.15;96.56;96303.22;5004296;28;20092;-62
2023/03/07 01:35:26;;;;;;;0.40;0.40;;;;;;;3.01;96.58;96253.50;5004041;28;20131;-60
2023/03/07 01:37:53;;;;;;;0.40;0.40;;;;;;;3.29;97.32;96309.16;5004202;28;20100;-61
2023/03/07 01:40:22;;;;;;;0.30;0.30;;;;;;;3.34;97.76;96317.13;5018848;28;20054;-62
2023/03/07 01:42:49;;;;;;;0.30;0.30;;;;;;;2.76;97.10;96246.44;5004529;28;20116;-62
2023/03/07 01:45:34;;;;;;;0.30;0.30;;;;;;;3.14;96.40;96307.09;5004369;28;20136;-62
2023/03/07 01:48:00;;;;;;;0.40;0.40;;;;;;;2.90;96.19;96268.78;5003966;28;20081;-61
2023/03/07 01:50:27;;;;;;;0.40;0.40;;;;;;;2.92;96.65;96299.31;5002499;28;20555;-62
2023/03/07 01:52:59;;;;;;;0.40;0.40;;;;;;;2.81;98.66;96303.63;5007001;28;20104;-60
2023/03/07 01:55:29;;;;;;;0.35;0.35;;;;;;;2.92;99.24;96299.31;5008152;28;20060;-62
2023/03/07 01:57:59;;;;;;;0.40;0.40;;;;;;;2.86;99.06;96292.47;5007971;28;20132;-62
2023/03/07 02:00:28;;;;;;;0.35;0.35;;;;;;;3.05;98.18;96303.69;5007906;28;20088;-61
2023/03/07 02:03:24;;;;;;;0.40;0.40;;;;;;;3.13;97.18;96300.00;4989077;28;20058;-61
2023/03/07 02:06:06;;;;;;;0.40;0.40;;;;;;;2.24;96.47;96163.44;4988382;28;20614;-62
2023/03/07 02:08:35;;;;;;;0.40;0.40;;;;;;;2.74;95.85;96249.50;4988508;28;20104;-62
2023/03/07 02:11:02;;;;;;;0.40;0.40;;;;;;;2.93;95.90;96276.28;4991268;28;20057;-62
2023/03/07 02:13:29;;;;;;;0.40;0.40;;;;;;;3.11;96.10;96296.84;5007768;28;20061;-60
2023/03/07 02:15:58;;;;;;;0.38;0.38;;;;;;;2.79;95.58;96248.47;5006292;28;20132;-62
2023/03/07 02:18:29;;;;;;;0.30;0.30;;;;;;;2.58;94.84;96228.63;5007319;28;20050;-60
2023/03/07 02:21:17;;;;;;;0.40;0.40;;;;;;;2.90;95.48;96296.13;5007574;28;20086;-60
2023/03/07 02:24:02;;;;;;;0.32;0.32;;;;;;;2.89;97.23;96300.78;5005604;28;20499;-59
2023/03/07 02:26:48;;;;;;;0.40;0.40;;;;;;;2.87;97.67;96302.28;5007472;28;20065;-62
2023/03/07 02:29:14;;;;;;;0.30;0.30;;;;;;;2.95;97.22;96304.13;5007358;28;20085;-61
2023/03/07 02:31:41;;;;;;;0.40;0.40;;;;;;;2.88;96.45;96301.13;5007770;28;20080;-61
2023/03/07 02:34:37;;;;;;;0.40;0.40;;;;;;;2.93;96.52;96306.38;5006841;28;20062;-60
2023/03/07 02:37:10;;;;;;;0.40;0.40;;;;;;;2.94;96.46;96302.53;4997195;28;20137;-59
2023/03/07 02:39:40;;;;;;;0.40;0.40;;;;;;;3.00;95.92;96312.88;5007518;28;20100;-61
2023/03/07 02:42:12;;;;;;;0.40;0.40;;;;;;;2.87;94.37;96302.28;5005963;28;20145;-60
2023/03/07 02:44:38;;;;;;;0.40;0.40;;;;;;;2.96;94.69;96316.63;5005621;28;20123;-60
2023/03/07 02:47:07;;;;;;;0.30;0.30;;;;;;;3.06;94.14;96299.78;5006988;28;20568;-59
2023/03/07 02:49:35;;;;;;;0.30;0.30;;;;;;;2.96;94.34;96305.69;5006655;28;20449;-59
2023/03/07 02:52:02;;;;;;;0.38;0.38;;;;;;;2.25;95.11;96244.25;5006810;28;20111;-60
2023/03/07 02:54:29;;;;;;;0.40;0.40;;;;;;;2.75;94.37;96315.94;5007003;28;20085;-61
2023/03/07 02:56:55;;;;;;;0.40;0.40;;;;;;;2.14;94.23;96256.72;5007166;28;20133;-60
2023/03/07 02:59:22;;;;;;;0.40;0.40;;;;;;;2.68;92.83;96311.00;5006949;28;20100;-61
2023/03/07 03:01:49;;;;;;;0.30;0.30;;;;;;;2.47;94.32;96315.72;5006855;28;20987;-59
2023/03/07 03:04:15;;;;;;;0.40;0.40;;;;;;;2.54;95.60;96306.97;5021667;28;20124;-61
2023/03/07 03:06:42;;;;;;;0.30;0.30;;;;;;;2.70;95.95;96307.94;5005278;28;20125;-61
2023/03/07 03:09:09;;;;;;;0.30;0.30;;;;;;;2.80;95.50;96302.00;5005264;28;20157;-61
2023/03/07 03:11:35;;;;;;;0.40;0.40;;;;;;;2.78;95.37;96298.84;5006553;28;20057;-61
2023/03/07 03:14:02;;;;;;;0.40;0.40;;;;;;;2.73;97.09;96296.31;5004639;28;20137;-60
2023/03/07 03:16:29;;;;;;;0.40;0.40;;;;;;;2.77;98.07;96299.97;5005201;28;20056;-60
2023/03/07 03:18:56;;;;;;;0.40;0.40;;;;;;;2.69;97.53;96270.78;5004645;28;20058;-62
2023/03/07 03:21:22;;;;;;;0.40;0.40;;;;;;;3.00;96.96;96292.97;5006820;28;20135;-60
2023/03/07 03:23:49;;;;;;;0.38;0.38;;;;;;;2.91;96.61;96270.34;5006111;28;20133;-61
2023/03/07 03:26:15;;;;;;;0.40;0.40;;;;;;;3.01;96.79;96286.34;5004711;28;20539;-61
2023/03/07 03:28:42;;;;;;;0.40;0.40;;;;;;;3.00;96.08;96284.75;5006166;28;20054;-60
2023/03/07 03:31:13;;;;;;;0.40;0.40;;;;;;;3.24;94.62;96295.69;5006485;28;20226;-60
2023/03/07 03:33:42;;;;;;;0.40;0.40;;;;;;;3.20;94.01;96293.97;5004375;28;20439;-60
2023/03/07 03:36:13;;;;;;;0.35;0.35;;;;;;;3.28;94.21;96296.63;5005977;28;20057;-60
2023/03/07 03:38:40;;;;;;;0.40;0.40;;;;;;;3.34;93.39;96306.19;5005940;28;20077;-61
2023/03/07 03:41:10;;;;;;;0.40;0.40;;;;;;;3.38;92.50;96304.38;5006098;28;20054;-59
2023/03/07 03:43:37;;;;;;;0.38;0.38;;;;;;;3.01;94.13;96300.00;5005880;28;20066;-60
2023/03/07 03:46:04;;;;;;;0.40;0.40;;;;;;;3.12;94.07;96298.44;5004130;28;20081;-60
2023/03/07 03:48:30;;;;;;;0.40;0.40;;;;;;;2.91;94.16;96232.88;5005817;28;20054;-60
2023/03/07 03:51:04;;;;;;;0.40;0.40;;;;;;;3.41;94.92;96295.47;5005884;28;20061;-59
2023/03/07 03:53:33;;;;;;;0.43;0.43;;;;;;;3.47;94.72;96287.81;5006138;28;20057;-61
2023/03/07 03:56:14;;;;;;;0.40;0.40;;;;;;;3.46;94.17;96291.72;5005782;28;20211;-60
2023/03/07 03:58:41;;;;;;;0.40;0.40;;;;;;;3.10;94.15;96240.50;5005765;28;20053;-59
2023/03/07 04:01:10;;;;;;;0.40;0.40;;;;;;;3.51;93.88;96289.53;5005321;28;20209;-61
2023/03/07 04:03:40;;;;;;;0.40;0.40;;;;;;;3.67;92.60;96293.16;5005526;28;20046;-59
2023/03/07 04:06:09;;;;;;;0.40;0.40;;;;;;;3.76;92.01;96296.56;5005228;28;20054;-60
2023/03/07 04:08:37;;;;;;;0.40;0.40;;;;;;;3.87;92.09;96294.94;5005475;28;20192;-63
2023/03/07 04:11:05;;;;;;;0.40;0.40;;;;;;;3.86;91.73;96296.09;5005230;28;20045;-61
2023/03/07 04:13:33;;;;;;;0.40;0.40;;;;;;;3.79;91.51;96290.44;5005706;28;20050;-61
2023/03/07 04:16:00;;;;;;;0.40;0.40;;;;;;;3.61;93.28;96294.56;5005152;28;20496;-59
2023/03/07 04:18:27;;;;;;;0.40;0.40;;;;;;;3.44;92.76;96250.19;5005678;28;20173;-61
2023/03/07 04:20:54;;;;;;;0.38;0.38;;;;;;;3.77;92.63;96291.91;5005705;28;20050;-60
2023/03/07 04:23:23;;;;;;;0.40;0.40;;;;;;;3.90;91.83;96291.53;5005466;28;20050;-60
2023/03/07 04:25:51;;;;;;;0.40;0.40;;;;;;;3.95;90.95;96294.03;5005364;28;20132;-61
2023/03/07 04:28:18;;;;;;;0.40;0.40;;;;;;;3.87;90.59;96289.47;5020413;28;20484;-60
2023/03/07 04:30:45;;;;;;;0.40;0.40;;;;;;;3.90;91.57;96285.25;5004830;28;20085;-61
2023/03/07 04:33:12;;;;;;;0.40;0.40;;;;;;;3.83;92.37;96290.50;5005391;28;20058;-62
2023/03/07 04:35:39;;;;;;;0.40;0.40;;;;;;;3.67;93.12;96289.63;5004476;28;20061;-61
2023/03/07 04:38:06;;;;;;;0.40;0.40;;;;;;;3.78;93.09;96294.28;5005288;28;20064;-60
2023/03/07 04:40:34;;;;;;;0.40;0.40;;;;;;;3.92;90.91;96382.38;5004770;28;20054;-62
2023/03/07 04:43:02;;;;;;;0.30;0.30;;;;;;;3.83;90.37;96274.88;5005376;28;20112;-61
2023/03/07 04:45:31;;;;;;;0.40;0.40;;;;;;;3.84;90.69;96295.63;5004917;28;20616;-59
2023/03/07 04:47:57;;;;;;;0.40;0.40;;;;;;;3.36;91.60;96243.72;5004988;28;20100;-60
2023/03/07 04:50:24;;;;;;;0.40;0.40;;;;;;;3.85;91.60;96365.72;5003264;28;20137;-61
2023/03/07 04:52:50;;;;;;;0.40;0.40;;;;;;;3.36;90.59;96205.41;5004912;28;20082;-60
2023/03/07 04:55:17;;;;;;;0.40;0.40;;;;;;;4.01;90.36;96302.81;5004564;28;20089;-62
2023/03/07 04:57:44;;;;;;;0.32;0.32;;;;;;;4.04;90.35;96300.19;5003785;28;20424;-60
2023/03/07 05:00:11;;;;;;;0.40;0.40;;;;;;;2.12;91.09;95999.56;5004047;28;20132;-61
2023/03/07 05:02:38;;;;;;;0.40;0.40;;;;;;;4.24;90.14;96301.13;5004583;28;20314;-60
2023/03/07 05:05:05;;;;;;;0.40;0.40;;;;;;;4.25;90.02;96300.78;5004323;28;20135;-61
2023/03/07 05:07:32;;;;;;;0.40;0.40;;;;;;;3.80;90.36;96242.72;5004397;28;20136;-61
2023/03/07 05:09:58;;;;;;;0.40;0.40;;;;;;;4.19;91.48;96310.41;5004521;28;20512;-62
2023/03/07 05:12:25;;;;;;;0.40;0.40;;;;;;;4.26;91.29;96313.38;5004637;28;20070;-60
2023/03/07 05:14:52;;;;;;;0.50;0.50;;;;;;;4.44;90.59;96311.91;5003173;28;20116;-61
2023/03/07 05:17:19;;;;;;;0.40;0.40;;;;;;;4.46;90.01;96300.59;5004938;28;20046;-62
2023/03/07 05:19:45;;;;;;;0.40;0.40;;;;;;;4.59;88.73;96307.63;2164906;28;10002010;-61
2023/03/07 05:22:12;;;;;;;0.40;0.40;;;;;;;4.78;86.36;96315.19;4954976;28;20051;-61
2023/03/07 05:24:39;;;;;;;0.40;0.40;;;;;;;4.37;87.34;96234.97;4979796;28;20109;-62
2023/03/07 05:27:05;;;;;;;0.50;0.50;;;;;;;4.86;87.12;96295.03;4966892;28;20055;-60
2023/03/07 05:29:32;;;;;;;0.40;0.40;;;;;;;5.10;87.14;96316.84;4969488;28;20540;-61
2023/03/07 05:32:00;;;;;;;0.50;0.50;;;;;;;5.06;86.05;96285.78;4983228;28;20055;-62
2023/03/07 05:34:27;;;;;;;0.40;0.40;;;;;;;5.02;84.75;96315.06;4969262;28;20138;-61
2023/03/07 05:36:53;;;;;;;0.40;0.40;;;;;;;5.01;85.74;96324.44;4969188;28;20086;-61
2023/03/07 05:39:20;;;;;;;0.47;0.47;;;;;;;5.20;84.75;96310.84;4969139;28;20062;-60
2023/03/07 05:41:46;;;;;;;0.50;0.50;;;;;;;5.33;83.52;96315.88;4984200;28;20089;-61
2023/03/07 05:44:13;;;;;;;0.50;0.50;;;;;;;5.32;83.04;96303.31;4972707;28;20101;-59
2023/03/07 05:46:40;;;;;;;0.50;0.50;;;;;;;3.11;82.32;95952.94;4988739;28;20312;-62
2023/03/07 05:49:06;;;;;;;0.40;0.40;;;;;;;5.05;82.52;96273.19;4988116;28;20078;-61
2023/03/07 05:51:33;;;;;;;0.50;0.50;;;;;;;5.29;83.38;96315.00;4987731;28;20054;-61
2023/03/07 05:54:00;;;;;;;0.50;0.50;;;;;;;5.19;84.15;96325.69;4987748;28;20386;-61
2023/03/07 05:56:26;;;;;;;0.50;0.50;;;;;;;5.37;84.00;96316.78;4987896;28;20315;-61
2023/03/07 05:58:53;;;;;;;0.50;0.50;;;;;;;4.89;84.10;96239.44;4988409;28;20606;-60
2023/03/07 06:01:19;;;;;;;0.50;0.50;;;;;;;5.54;84.38;96319.16;4987926;28;20093;-60
2023/03/07 06:03:47;;;;;;;0.50;0.50;;;;;;;5.60;84.06;96314.97;4987774;28;20054;-61
2023/03/07 06:06:13;;;;;;;0.50;0.50;;;;;;;5.50;84.59;96292.75;4986486;28;20078;-60
2023/03/07 06:08:40;;;;;;;0.50;0.50;;;;;;;5.67;84.21;96317.09;4988139;28;20085;-62
2023/03/07 06:11:08;;;;;;;0.50;0.50;;;;;;;5.75;84.58;96321.63;4987681;28;20110;-62
2023/03/07 06:13:35;;;;;;;0.50;0.50;;;;;;;5.70;84.49;96319.13;5008003;28;20516;-63
2023/03/07 06:16:01;;;;;;;0.50;0.50;;;;;;;5.73;84.74;96324.72;5007421;28;20402;-60
2023/03/07 06:18:28;;;;;;;0.50;0.50;;;;;;;5.50;84.37;96251.56;5007492;28;20042;-62
2023/03/07 06:20:57;;;;;;;0.50;0.50;;;;;;;5.99;84.40;96321.44;5006949;28;20072;-62
2023/03/07 06:23:25;;;;;;;0.50;0.50;;;;;;;5.87;84.60;96318.78;5007385;28;20136;-61
2023/03/07 06:25:52;;;;;;;0.50;0.50;;;;;;;5.72;84.92;96278.38;5005675;28;20050;-61
2023/03/07 06:28:19;;;;;;;0.50;0.50;;;;;;;6.01;84.00;96302.59;5007800;28;20097;-61
2023/03/07 06:30:46;;;;;;;0.52;0.52;;;;;;;5.86;84.44;96268.50;5007089;28;20058;-62
2023/03/07 06:33:13;;;;;;;0.50;0.50;;;;;;;6.19;84.31;96295.56;5007015;28;20057;-62
2023/03/07 06:35:42;;;;;;;0.50;0.50;;;;;;;6.42;84.26;96312.16;4994982;28;20050;-59
2023/03/07 06:38:10;;;;;;;0.50;0.50;;;;;;;6.46;83.00;96280.81;4988549;28;20597;-56
2023/03/07 06:40:37;;;;;;;0.60;0.60;;;;;;;6.90;82.51;96295.81;4986914;28;20532;-59
2023/03/07 06:43:04;;;;;;;0.60;0.60;;;;;;;5.57;80.03;96100.66;4989337;28;20077;-59
2023/03/07 06:45:31;;;;;;;0.60;0.60;;;;;;;7.02;79.86;96232.31;4986420;28;20509;-57
2023/03/07 06:47:57;;;;;;;0.60;0.60;;;;;;;7.93;78.71;96315.69;4986366;28;20053;-61
2023/03/07 06:50:24;;;;;;;0.60;0.60;;;;;;;6.08;76.90;96049.88;4986015;28;20046;-58
2023/03/07 06:53:00;;;;;;;0.70;0.70;;;;;;;8.48;75.89;96286.53;4987045;28;20089;-59
2023/03/07 06:55:27;;;;;;;0.70;0.70;;;;;;;8.44;74.88;96264.41;4982656;28;20530;-59
2023/03/07 06:57:54;;;;;;;0.70;0.70;;;;;;;8.92;74.95;96296.53;4987201;28;20042;-60
2023/03/07 07:00:21;;;;;;;0.70;0.70;;;;;;;8.74;74.99;96200.88;4989599;28;20480;-60
2023/03/07 07:02:48;;;;;;;0.80;0.80;;;;;;;9.70;72.83;96311.13;4986762;28;20073;-61
2023/03/07 07:05:16;;;;;;;0.80;0.80;;;;;;;10.00;71.83;96312.56;4984734;28;20054;-57
2023/03/07 07:07:42;;;;;;;0.80;0.80;;;;;;;10.18;70.80;96313.50;4986041;28;20046;-62
2023/03/07 07:10:10;;;;;;;0.90;0.90;;;;;;;10.50;69.32;96308.13;4987390;28;20109;-56
2023/03/07 07:12:37;;;;;;;0.85;0.85;;;;;;;10.90;68.35;96315.44;4986005;28;20595;-58
2023/03/07 07:15:04;;;;;;;0.80;0.80;;;;;;;11.16;66.38;96306.84;4984187;28;20544;-57
2023/03/07 07:17:34;;;;;;;0.90;0.90;;;;;;;11.43;66.40;96305.31;4986088;28;20129;-58
2023/03/07 07:20:05;;;;;;;0.90;0.90;;;;;;;11.54;65.97;96306.13;4983016;28;20558;-59
2023/03/07 07:22:32;;;;;;;0.90;0.90;;;;;;;11.80;63.53;96303.00;4987588;28;20057;-63
2023/03/07 07:24:59;;;;;;;1.00;1.00;;;;;;;11.87;62.84;96309.34;4985344;28;20072;-60
2023/03/07 07:27:27;;;;;;;1.00;1.00;;;;;;;11.55;63.07;96255.00;4985845;28;20129;-58
2023/03/07 07:29:53;;;;;;;0.90;0.90;;;;;;;11.11;64.00;96204.66;4984992;28;20043;-61
2023/03/07 07:32:20;;;;;;;1.00;1.00;;;;;;;11.40;64.18;96206.25;4985096;28;20063;-60
2023/03/07 07:34:47;;;;;;;0.90;0.90;;;;;;;12.11;62.43;96293.84;4984865;28;20120;-59
2023/03/07 07:37:13;;;;;;;1.02;1.02;;;;;;;11.36;63.43;96163.91;4985652;28;20047;-61
2023/03/07 07:39:42;;;;;;;1.00;1.00;;;;;;;12.60;62.99;96298.53;4987343;28;20049;-60
2023/03/07 07:42:10;;;;;;;1.00;1.00;;;;;;;12.62;61.14;96294.16;4983619;28;20043;-63
2023/03/07 07:44:37;;;;;;;1.00;1.00;;;;;;;12.04;61.92;96249.47;4985916;28;20057;-60
2023/03/07 07:47:04;;;;;;;1.02;1.02;;;;;;;12.43;63.22;96286.28;4985012;28;20050;-61
2023/03/07 07:49:30;;;;;;;1.20;1.20;;;;;;;12.51;62.29;96282.28;4984018;28;20061;-59
2023/03/07 07:51:57;;;;;;;0.90;0.90;;;;;;;12.36;62.75;96291.81;4980058;28;20046;-58
2023/03/07 07:54:24;;;;;;;1.00;1.00;;;;;;;12.49;63.01;96290.22;4999450;28;20120;-60
2023/03/07 07:56:51;;;;;;;1.10;1.10;;;;;;;12.56;63.23;96287.44;4984446;28;20050;-60
2023/03/07 07:59:17;;;;;;;1.00;1.00;;;;;;;12.81;62.36;96285.34;4984668;28;20077;-61
2023/03/07 08:01:44;;;;;;;1.00;1.00;;;;;;;12.36;63.44;96291.81;4985225;28;20149;-59
2023/03/07 08:04:11;;;;;;;1.00;1.00;;;;;;;11.82;64.27;96222.94;4983987;28;20058;-62
2023/03/07 08:06:38;;;;;;;1.00;1.00;;;;;;;11.81;64.77;96297.06;4975732;28;20079;-61
2023/03/07 08:09:05;;;;;;;1.00;1.00;;;;;;;10.63;68.37;96210.50;4985188;28;20054;-60
2023/03/07 08:11:32;;;;;;;0.90;0.90;;;;;;;10.60;68.80;96200.22;4984635;28;20054;-62
2023/03/07 08:13:58;;;;;;;0.90;0.90;;;;;;;11.24;68.31;96277.97;4985049;28;20050;-62
2023/03/07 08:16:25;;;;;;;0.90;0.90;;;;;;;11.50;67.33;96255.41;4988745;28;20500;-61
2023/03/07 08:18:54;;;;;;;0.90;0.90;;;;;;;9.92;65.52;96001.09;4983798;28;20050;-59
2023/03/07 08:21:22;;;;;;;0.90;0.90;;;;;;;11.82;66.18;96272.88;5000949;28;20046;-59
2023/03/07 08:23:49;;;;;;;0.90;0.90;;;;;;;11.15;65.95;96208.22;4983706;28;20070;-60
2023/03/07 08:26:16;;;;;;;1.00;1.00;;;;;;;11.24;68.21;96280.72;4983785;28;20046;-62
2023/03/07 08:28:43;;;;;;;0.90;0.90;;;;;;;11.10;69.06;96270.38;4989171;28;20062;-61
2023/03/07 08:31:15;;;;;;;0.90;0.90;;;;;;;11.57;67.09;96272.81;4984302;28;20054;-62
2023/03/07 08:33:43;;;;;;;0.95;0.95;;;;;;;11.53;67.42;96271.25;4981365;28;20543;-61
2023/03/07 08:36:09;;;;;;;0.98;0.98;;;;;;;11.50;66.69;96219.34;4983030;28;20108;-60
2023/03/07 08:38:37;;;;;;;0.95;0.95;;;;;;;11.94;65.11;96275.25;4983608;28;20054;-59
2023/03/07 08:41:06;;;;;;;0.90;0.90;;;;;;;11.85;65.99;96272.88;4987371;28;20078;-60
2023/03/07 08:43:35;;;;;;;0.90;0.90;;;;;;;11.90;66.33;96274.47;4984437;28;20533;-59
2023/03/07 08:46:02;;;;;;;1.00;1.00;;;;;;;12.14;64.97;96279.16;4985131;28;20477;-58
2023/03/07 08:48:29;;;;;;;0.90;0.90;;;;;;;11.90;64.93;96268.91;4980816;28;20061;-60
2023/03/07 08:50:56;;;;;;;0.90;0.90;;;;;;;11.99;64.32;96228.47;4983706;28;20058;-60
2023/03/07 08:53:23;;;;;;;0.95;0.95;;;;;;;12.61;61.42;96275.13;4981397;28;20509;-60
2023/03/07 08:55:50;;;;;;;1.00;1.00;;;;;;;12.35;61.28;96264.47;4987407;28;20517;-63
2023/03/07 08:58:16;;;;;;;0.90;0.90;;;;;;;12.40;61.04;96202.94;4987453;28;20124;-57
2023/03/07 09:00:43;;;;;;;0.95;0.95;;;;;;;13.07;58.98;96264.63;4982918;28;20101;-58
2023/03/07 09:03:10;;;;;;;1.10;1.10;;;;;;;13.48;57.47;96258.00;4982400;28;20050;-61
2023/03/07 09:05:37;;;;;;;1.10;1.10;;;;;;;13.66;57.07;96235.59;4982251;28;20082;-57
2023/03/07 09:08:05;;;;;;;1.10;1.10;;;;;;;13.86;56.09;96216.34;4982323;28;20061;-61
2023/03/07 09:10:33;;;;;;;1.40;1.40;;;;;;;14.26;54.99;96251.78;4996381;28;20100;-61
2023/03/07 09:13:00;;;;;;;1.23;1.23;;;;;;;14.62;54.70;96241.88;4985411;28;20168;-60
2023/03/07 09:15:26;;;;;;;1.33;1.33;;;;;;;14.70;52.88;96235.00;4982166;28;20129;-59
2023/03/07 09:17:53;;;;;;;1.20;1.20;;;;;;;14.54;53.04;96240.38;4982168;28;20077;-60
2023/03/07 09:20:20;;;;;;;1.33;1.33;;;;;;;13.73;53.70;96096.41;4983582;28;20050;-58
2023/03/07 09:22:46;;;;;;;1.30;1.30;;;;;;;14.34;52.14;96125.16;4984675;28;20050;-60
2023/03/07 09:25:13;;;;;;;1.33;1.33;;;;;;;14.84;51.26;96237.63;4983578;28;20061;-60
2023/03/07 09:27:40;;;;;;;1.50;1.50;;;;;;;14.45;51.52;96245.63;4999152;28;20050;-59
2023/03/07 09:30:07;;;;;;;1.30;1.30;;;;;;;14.89;52.17;96237.16;4988521;28;20137;-60
2023/03/07 09:32:34;;;;;;;1.30;1.30;;;;;;;15.11;50.79;96235.66;4984755;28;20503;-61
2023/03/07 09:35:01;;;;;;;1.25;1.25;;;;;;;15.10;51.24;96240.44;4983937;28;20124;-60
2023/03/07 09:37:27;;;;;;;1.45;1.45;;;;;;;15.28;50.97;96229.03;4983764;28;20090;-60
2023/03/07 09:39:54;;;;;;;1.33;1.33;;;;;;;14.89;50.31;96226.00;4982716;28;20454;-58
2023/03/07 09:42:33;;;;;;;1.30;1.30;;;;;;;14.69;50.53;96225.84;4984995;28;20058;-58
2023/03/07 09:44:59;;;;;;;1.50;1.50;;;;;;;15.14;50.26;96223.66;4982392;28;20124;-61
2023/03/07 09:47:29;;;;;;;1.30;1.30;;;;;;;15.14;49.87;96223.66;4985136;28;20046;-63
2023/03/07 09:49:58;;;;;;;1.20;1.20;;;;;;;14.99;50.65;96211.09;4984212;28;20148;-60
2023/03/07 09:52:27;;;;;;;1.35;1.35;;;;;;;15.36;48.65;96213.78;4983416;28;20149;-61
2023/03/07 09:55:04;;;;;;;1.35;1.35;;;;;;;15.67;48.00;96206.13;4983068;28;20050;-61
2023/03/07 09:57:35;;;;;;;1.40;1.40;;;;;;;15.75;47.98;96208.38;4989038;28;20074;-58
2023/03/07 10:00:16;;;;;;;1.40;1.40;;;;;;;16.05;47.00;96204.69;4983818;28;20506;-60
2023/03/07 10:02:52;;;;;;;1.42;1.42;;;;;;;16.06;47.90;96156.75;4987143;28;20049;-60
2023/03/07 10:05:40;;;;;;;1.52;1.52;;;;;;;16.56;46.74;96190.16;4979710;28;20058;-59
2023/03/07 10:08:13;;;;;;;1.60;1.60;;;;;;;16.55;46.95;96183.78;4985044;28;20058;-60
2023/03/07 10:10:56;;;;;;;1.70;1.70;;;;;;;16.75;46.11;96185.78;4980468;28;20525;-59
2023/03/07 10:13:22;;;;;;;1.52;1.52;;;;;;;16.57;46.17;96175.75;4985717;28;20621;-61
2023/03/07 10:15:56;;;;;;;1.50;1.50;;;;;;;16.32;47.64;96178.22;4994417;28;20124;-58
2023/03/07 10:18:41;;;;;;;1.33;1.33;;;;;;;16.80;46.60;96162.91;4990897;28;20082;-61
2023/03/07 10:21:11;;;;;;;1.70;1.70;;;;;;;16.88;45.66;96161.53;4987267;28;20292;-62
2023/03/07 10:23:59;;;;;;;1.50;1.50;;;;;;;16.74;46.12;96161.84;4987473;28;20054;-61
2023/03/07 10:26:32;;;;;;;1.40;1.40;;;;;;;16.84;45.04;96153.22;4987454;28;20121;-60
2023/03/07 10:29:09;;;;;;;1.60;1.60;;;;;;;16.49;47.10;96157.53;4986263;28;20054;-60
2023/03/07 10:31:41;;;;;;;1.50;1.50;;;;;;;16.27;45.92;96134.00;4987044;28;20607;-60
2023/03/07 10:34:16;;;;;;;1.58;1.58;;;;;;;16.45;45.35;96081.34;4985872;28;20086;-61
2023/03/07 10:36:56;;;;;;;1.65;1.65;;;;;;;16.59;44.98;96089.44;4986939;28;20512;-61
2023/03/07 10:39:45;;;;;;;1.45;1.45;;;;;;;16.86;44.75;96136.00;4987069;28;20062;-60
2023/03/07 10:42:13;;;;;;;1.67;1.67;;;;;;;17.00;43.67;96141.28;4987210;28;20435;-60
2023/03/07 10:44:41;;;;;;;1.77;1.77;;;;;;;17.21;43.36;96129.59;4987081;28;20058;-59
2023/03/07 10:47:18;;;;;;;1.60;1.60;;;;;;;17.39;42.74;96141.16;4987431;28;20544;-59
2023/03/07 10:49:47;;;;;;;1.77;1.77;;;;;;;17.45;43.64;96128.25;4987268;28;20457;-60
2023/03/07 10:52:14;;;;;;;1.63;1.63;;;;;;;17.80;42.78;96122.53;4986226;28;20081;-60
2023/03/07 10:54:41;;;;;;;1.88;1.88;;;;;;;17.59;43.47;96122.31;4986946;28;20050;-60
2023/03/07 10:57:16;;;;;;;1.80;1.80;;;;;;;17.06;43.48;96122.75;4988619;28;20053;-60
2023/03/07 10:59:47;;;;;;;1.48;1.48;;;;;;;16.64;44.45;96119.66;4967050;28;20046;-58
2023/03/07 11:02:36;;;;;;;1.70;1.70;;;;;;;16.60;44.79;96124.56;4987548;28;20129;-59
2023/03/07 11:05:22;;;;;;;1.50;1.50;;;;;;;16.19;44.56;96026.38;4986521;28;20521;-61
2023/03/07 11:07:49;;;;;;;1.55;1.55;;;;;;;16.54;44.52;96108.72;4983921;28;20101;-61
2023/03/07 11:10:34;;;;;;;1.58;1.58;;;;;;;16.73;43.96;96088.34;4988876;28;20069;-60
2023/03/07 11:13:12;;;;;;;1.50;1.50;;;;;;;16.02;43.67;95999.63;4984552;28;20140;-61
2023/03/07 11:15:39;;;;;;;1.58;1.58;;;;;;;16.74;43.82;96095.50;4986763;28;20066;-60
2023/03/07 11:18:28;;;;;;;1.52;1.52;;;;;;;15.92;44.89;96090.00;4986867;28;20658;-59
2023/03/07 11:20:56;;;;;;;1.30;1.30;;;;;;;16.12;44.91;96088.00;4976652;28;20125;-59
2023/03/07 11:23:30;;;;;;;1.50;1.50;;;;;;;16.19;44.67;96081.47;4967086;28;20512;-60
2023/03/07 11:26:15;;;;;;;1.70;1.70;;;;;;;16.31;43.75;96078.81;4981509;28;20062;-59
2023/03/07 11:28:42;;;;;;;1.55;1.55;;;;;;;16.21;43.49;96051.91;4979953;28;20109;-60
2023/03/07 11:31:27;;;;;;;1.58;1.58;;;;;;;15.98;44.52;96070.75;4985839;28;20054;-59
2023/03/07 11:34:19;;;;;;;1.45;1.45;;;;;;;15.74;44.82;96072.78;4984857;28;20077;-60
2023/03/07 11:36:54;;;;;;;1.30;1.30;;;;;;;15.44;45.48;96058.19;4986577;28;20061;-59
2023/03/07 11:39:45;;;;;;;1.30;1.30;;;;;;;15.28;45.46;96056.06;4986966;28;20120;-61
2023/03/07 11:42:23;;;;;;;1.58;1.58;;;;;;;15.23;46.24;96037.00;4986355;28;20132;-59
2023/03/07 11:44:59;;;;;;;1.42;1.42;;;;;;;15.66;46.22;96048.22;4986504;28;20470;-60
2023/03/07 11:47:36;;;;;;;1.40;1.40;;;;;;;15.98;45.53;96053.97;4984457;28;20046;-59
2023/03/07 11:50:21;;;;;;;1.40;1.40;;;;;;;16.47;44.88;96045.34;4984719;28;20170;-60